Braintree, MA (02185)

11:32 PM EST on December 20, 2014 (GMT -0500)
Braintree heights | Change Station
CLOSE
Current Station
Personal Weather Station
Location: Braintree, MA
Elevation: 130 ft
Nearby Weather Stations
Active Advisory: Special Statement Active Notice: Public Information Statement

Elev 130 ft 42.20 °N, 70.99 °W | Updated 4 seconds ago

Snow
Snow
34.9 °F
Feels Like 35 °F
N
2.2
Wind Variable Wind from East
Gusts 3.1 mph

Today
High -- | Low -- °F
--% Chance of Precip.
Yesterday
High -- | Low -- °F
Precip. -- in
7:08 AM 4:14 PM
Waning Crescent, 1% visible
Pressure 30.28 in
Visibility 10.0 miles
Clouds Scattered Clouds 2000 ft
Mostly Cloudy 4000 ft
Overcast 5500 ft
Windchill 35 °F
Dew Point 32 °F
Humidity 90%
Rainfall 0.00 in
Snow Depth Not available.
UV 0 out of 12
Pollen .10 out of 12
Air Quality Not available.
Flu Activity Not available.
SPECI KOWD 210428Z AUTO 00000KT 10SM SCT020 BKN040 OVC055 01/M01 A3028 RMK AO2 T00061006

More Conditions Fewer Conditions

Pressure 30.28 in
Visibility 10.0 miles
Clouds Scattered Clouds 2000 ft
Mostly Cloudy 4000 ft
Overcast 5500 ft
Windchill 35 °F
Dew Point 32 °F
Humidity 90%
Rainfall 0.00 in
Snow Depth Not available.
UV 0 out of 12
Pollen .10 out of 12
Air Quality Not available.
Flu Activity Not available.
SPECI KOWD 210428Z AUTO 00000KT 10SM SCT020 BKN040 OVC055 01/M01 A3028 RMK AO2 T00061006

More Conditions Fewer Conditions

10-Day Weather Forecast

Almanac

Astronomy

Dec. 20, 2014 Rise Set
Actual Time
Civil Twilight
Nautical Twilight
Astronomical Twilight
Moon
Length of Visible Light
Length of Day
Tomorrow will be .
, % of the Moon is Illuminated

Today's Extremes

State Highs State Lows

Community

WunderPhotos

Upload Photos

1,779,358 photos uploaded!

WunderBlogs® & News

Nearby

Air Quality

  Air Quality AQ Index Pollutant
Not available.

Snow Depth

Station Depth Elevation

Earthquake Activity

City Distance Mag. Time & Date
Minimum magnitude displayed is 2.5.

Coastal Water Temperatures

Place Temperature

Nearby Weather Stations